Glen Rose, Texas
Current Conditions -  °F | °C
As of 11:15 AM on Sunday 23 Nov 2014 (Local Time) from KGDJ Reporting Station
Clear Clear  
Wind Chill: 21°   Ceiling: Unl
Heat Index: 21°   Visibility: 10mi
Dew Point:   Wind: 13mph
Humidity: 43%   Direction: 240°WSW
Pressure: 29.51"   Gusts: 18mph
Location:  32.23°N, 97.76°W
Report Text: KGDJ 231715Z AUTO 24011G16KT 10SM CLR 21/08 A2951 RMK AO2 T02100078
Loading
Personal Weather Stations






























Interactive Weather Map New forecast layout! Learn more

10-Day Weather Forecast

Advertisements
Track Severe Weather on mobile